Time;durP1;ratioP1;P1;durP2;ratioP2;P2;SDS_P1;SDS_P2;PMS_P1;PMS_P2;Temp;Humidity;BMP_temperature;BMP_pressure;BME280_temperature;BME280_humidity;BME280_pressure;Samples;Min_cycle;Max_cycle;Signal;HPM_P1;HPM_P2
2022/07/16 00:02:12;;;;;;;2.83;1.83;;;15.60;48.10;;;;;;5000489;28;21221;-61
2022/07/16 00:04:40;;;;;;;3.17;1.58;;;15.60;41.70;;;;;;5043472;28;20204;-61
2022/07/16 00:07:07;;;;;;;2.92;1.80;;;15.60;40.60;;;;;;5038855;28;20200;-61
2022/07/16 00:09:34;;;;;;;7.28;1.90;;;15.60;39.90;;;;;;5011268;28;20236;-61
2022/07/16 00:12:01;;;;;;;3.03;1.80;;;15.60;38.20;;;;;;5035687;28;20194;-63
2022/07/16 00:14:28;;;;;;;2.10;1.65;;;15.60;37.60;;;;;;5041545;28;20197;-63
2022/07/16 00:16:54;;;;;;;3.92;1.40;;;15.60;35.60;;;;;;5020934;28;20232;-64
2022/07/16 00:19:21;;;;;;;1.60;1.50;;;15.60;34.10;;;;;;5033434;28;20201;-63
2022/07/16 00:21:50;;;;;;;2.92;1.50;;;15.60;31.80;;;;;;5037950;28;20201;-63
2022/07/16 00:24:18;;;;;;;5.03;1.67;;;15.60;30.40;;;;;;5012470;28;20602;-64
2022/07/16 00:26:46;;;;;;;5.13;1.50;;;15.60;28.50;;;;;;5042618;28;20209;-64
2022/07/16 00:29:13;;;;;;;3.95;1.52;;;15.80;21.80;;;;;;5037396;28;20331;-63
2022/07/16 00:31:40;;;;;;;2.25;1.48;;;15.70;18.60;;;;;;5022579;28;20227;-63
2022/07/16 00:34:07;;;;;;;3.08;1.45;;;15.60;15.40;;;;;;5026308;28;20205;-64
2022/07/16 00:36:35;;;;;;;1.75;1.45;;;15.60;14.00;;;;;;5042294;28;20711;-63
2022/07/16 00:39:04;;;;;;;2.10;1.73;;;15.60;11.00;;;;;;5021659;28;20205;-63
2022/07/16 00:41:31;;;;;;;5.00;1.70;;;15.60;1.60;;;;;;5017323;28;20209;-63
2022/07/16 00:44:00;;;;;;;3.20;1.40;;;15.60;2.60;;;;;;5041604;28;20287;-63
2022/07/16 00:46:28;;;;;;;4.20;1.52;;;17.80;6.70;;;;;;5015732;28;20205;-64
2022/07/16 00:48:56;;;;;;;4.60;1.60;;;15.70;2.50;;;;;;5033336;28;20206;-63
2022/07/16 00:51:24;;;;;;;2.40;1.60;;;15.60;1.00;;;;;;5017406;28;20969;-63
2022/07/16 00:53:51;;;;;;;3.75;1.60;;;15.60;1.00;;;;;;5039509;28;20204;-63
2022/07/16 00:56:20;;;;;;;2.92;1.55;;;15.60;2.40;;;;;;5012997;28;21598;-64
2022/07/16 00:58:48;;;;;;;1.73;1.63;;;15.60;1.00;;;;;;5023454;28;20209;-63
2022/07/16 01:01:16;;;;;;;1.60;1.50;;;15.60;1.00;;;;;;5013220;28;21229;-63
2022/07/16 01:03:44;;;;;;;4.28;1.83;;;15.60;1.00;;;;;;5041810;28;20206;-63
2022/07/16 01:06:12;;;;;;;3.92;1.20;;;15.60;1.00;;;;;;5014515;28;20397;-63
2022/07/16 01:08:41;;;;;;;1.60;1.50;;;15.60;1.00;;;;;;5041937;28;20204;-63
2022/07/16 01:11:10;;;;;;;3.13;1.55;;;15.60;1.00;;;;;;5010501;28;21731;-63
2022/07/16 01:13:40;;;;;;;4.90;1.95;;;15.70;1.00;;;;;;5045294;28;20204;-63
2022/07/16 01:16:09;;;;;;;2.90;1.60;;;15.80;1.00;;;;;;5035713;28;20367;-63
2022/07/16 01:18:36;;;;;;;2.17;1.98;;;15.70;1.00;;;;;;5023965;28;20287;-63
2022/07/16 01:21:04;;;;;;;2.13;1.67;;;15.90;8.50;;;;;;5022775;28;20201;-63
2022/07/16 01:23:32;;;;;;;2.33;1.88;;;15.70;24.00;;;;;;5025896;28;20205;-63
2022/07/16 01:26:00;;;;;;;4.60;2.08;;;15.80;27.70;;;;;;5022021;28;29511;-64
2022/07/16 01:28:27;;;;;;;3.08;1.85;;;17.20;25.50;;;;;;5028698;28;20679;-63
2022/07/16 01:30:54;;;;;;;3.13;1.83;;;15.90;30.00;;;;;;5024965;28;20209;-63
2022/07/16 01:33:23;;;;;;;3.92;2.40;;;15.90;44.60;;;;;;5027642;28;20201;-63
2022/07/16 01:35:51;;;;;;;8.18;2.00;;;15.90;52.10;;;;;;5027273;28;20220;-64
2022/07/16 01:38:18;;;;;;;3.28;2.08;;;15.70;66.50;;;;;;5035180;28;20230;-64
2022/07/16 01:40:47;;;;;;;2.28;1.80;;;15.80;72.80;;;;;;5045702;28;20205;-63
2022/07/16 01:43:16;;;;;;;2.97;1.70;;;15.80;78.00;;;;;;5015414;28;20246;-63
2022/07/16 01:45:43;;;;;;;2.70;2.17;;;15.80;84.30;;;;;;5043184;28;20196;-64
2022/07/16 01:48:11;;;;;;;2.38;1.83;;;14.60;92.70;;;;;;5028179;28;20208;-63
2022/07/16 01:50:39;;;;;;;3.50;2.15;;;15.50;95.40;;;;;;5047835;28;20222;-63
2022/07/16 01:53:06;;;;;;;3.42;1.83;;;;;;;;;;5030186;28;20205;-63
2022/07/16 01:55:34;;;;;;;2.90;1.98;;;15.80;95.20;;;;;;5038434;28;20229;-63
2022/07/16 01:58:03;;;;;;;2.33;2.00;;;16.00;98.60;;;;;;5000583;28;20283;-63
2022/07/16 02:00:30;;;;;;;3.22;2.15;;;;;;;;;;5025955;28;20213;-64
2022/07/16 02:02:57;;;;;;;4.93;2.13;;;15.80;96.90;;;;;;5032442;28;20205;-63
2022/07/16 02:05:24;;;;;;;3.17;2.10;;;15.80;98.30;;;;;;5029010;28;20202;-64
2022/07/16 02:07:51;;;;;;;4.38;2.22;;;15.90;99.90;;;;;;5033504;28;20586;-63
2022/07/16 02:10:18;;;;;;;6.95;2.13;;;15.80;98.80;;;;;;5039273;28;20254;-63
2022/07/16 02:12:45;;;;;;;6.57;2.03;;;15.90;99.00;;;;;;5020568;28;21217;-63
2022/07/16 02:15:13;;;;;;;2.63;1.90;;;15.80;99.40;;;;;;5022365;28;20219;-63
2022/07/16 02:17:41;;;;;;;5.25;2.08;;;17.90;99.90;;;;;;5040690;28;20197;-64
2022/07/16 02:20:10;;;;;;;3.75;1.80;;;16.10;99.90;;;;;;5033903;28;20197;-63
2022/07/16 02:22:38;;;;;;;3.42;1.83;;;15.80;99.90;;;;;;5012851;28;20220;-63
2022/07/16 02:25:06;;;;;;;2.25;1.90;;;15.80;99.90;;;;;;5039432;28;20201;-63
2022/07/16 02:27:33;;;;;;;3.65;1.77;;;15.90;99.90;;;;;;4997014;28;20222;-64
2022/07/16 02:30:00;;;;;;;4.50;2.08;;;15.80;99.90;;;;;;5039432;28;20193;-63
2022/07/16 02:32:29;;;;;;;4.88;2.03;;;;;;;;;;5030815;28;20201;-64
2022/07/16 02:34:56;;;;;;;3.30;2.20;;;15.80;99.90;;;;;;5046574;28;20208;-63
2022/07/16 02:37:23;;;;;;;2.95;1.98;;;15.50;99.90;;;;;;5020603;28;20232;-64
2022/07/16 02:39:49;;;;;;;5.40;2.25;;;15.80;99.90;;;;;;5027838;28;20217;-64
2022/07/16 02:42:16;;;;;;;6.03;2.17;;;15.50;99.90;;;;;;5036810;28;20210;-64
2022/07/16 02:44:43;;;;;;;5.82;2.15;;;16.40;99.90;;;;;;5008701;28;20210;-64
2022/07/16 02:47:10;;;;;;;5.90;2.30;;;15.70;99.90;;;;;;5036656;28;20687;-63
2022/07/16 02:49:38;;;;;;;3.65;1.92;;;15.70;99.90;;;;;;5029160;28;20212;-63
2022/07/16 02:52:06;;;;;;;5.45;2.35;;;15.60;99.90;;;;;;5030365;28;20199;-64
2022/07/16 02:54:32;;;;;;;7.50;2.50;;;15.70;99.90;;;;;;5011196;28;20207;-64
2022/07/16 02:56:59;;;;;;;5.28;2.22;;;15.70;99.90;;;;;;5028834;28;20270;-63
2022/07/16 02:59:26;;;;;;;5.25;3.33;;;15.80;99.90;;;;;;5012445;28;20211;-64
2022/07/16 03:01:53;;;;;;;2.92;2.33;;;15.90;99.90;;;;;;5014355;28;20331;-64
2022/07/16 03:04:20;;;;;;;5.63;2.80;;;15.80;99.90;;;;;;5035866;28;20204;-63
2022/07/16 03:06:48;;;;;;;5.88;2.75;;;16.00;99.90;;;;;;5015163;28;21121;-63
2022/07/16 03:09:15;;;;;;;4.90;2.17;;;15.80;99.90;;;;;;5034107;28;20597;-63
2022/07/16 03:11:42;;;;;;;4.75;2.35;;;14.80;99.90;;;;;;5020100;28;20208;-64
2022/07/16 03:14:08;;;;;;;6.07;2.67;;;15.80;99.90;;;;;;4998005;28;20686;-64
2022/07/16 03:16:35;;;;;;;6.40;2.67;;;15.70;99.90;;;;;;5028495;28;20450;-64
2022/07/16 03:19:02;;;;;;;2.45;2.05;;;15.70;99.90;;;;;;5036817;28;20189;-63
2022/07/16 03:21:29;;;;;;;6.35;2.60;;;15.70;99.90;;;;;;5019673;28;20194;-63
2022/07/16 03:23:57;;;;;;;3.60;2.55;;;15.80;99.90;;;;;;5027482;28;20205;-64
2022/07/16 03:26:24;;;;;;;2.50;2.30;;;15.40;99.90;;;;;;5028942;28;20204;-63
2022/07/16 03:28:51;;;;;;;4.65;2.30;;;15.60;99.90;;;;;;5010375;28;20205;-63
2022/07/16 03:31:18;;;;;;;3.85;2.40;;;15.60;99.90;;;;;;5019473;28;20208;-63
2022/07/16 03:33:45;;;;;;;3.03;2.22;;;15.50;99.90;;;;;;5012238;28;20786;-63
2022/07/16 03:36:12;;;;;;;5.80;2.40;;;15.50;99.90;;;;;;5036315;28;20227;-63
2022/07/16 03:41:24;;;;;;;3.28;2.10;;;15.50;99.90;;;;;;5027861;28;20260;-63
2022/07/16 03:43:51;;;;;;;3.20;2.00;;;15.50;99.90;;;;;;5042592;28;20300;-63
2022/07/16 03:46:19;;;;;;;3.88;2.10;;;15.50;99.90;;;;;;5012475;28;21234;-63
2022/07/16 03:48:46;;;;;;;1.98;1.60;;;15.30;99.90;;;;;;5046319;28;20204;-63
2022/07/16 03:51:13;;;;;;;6.03;1.90;;;15.50;99.90;;;;;;5020808;28;20211;-63
2022/07/16 03:53:40;;;;;;;3.60;1.80;;;15.70;99.90;;;;;;5022890;28;20204;-64
2022/07/16 03:56:08;;;;;;;2.88;1.90;;;15.50;99.90;;;;;;5010204;28;21003;-63
2022/07/16 03:58:36;;;;;;;3.78;2.03;;;15.40;99.90;;;;;;5033503;28;20196;-63
2022/07/16 04:01:04;;;;;;;4.75;2.00;;;13.90;99.90;;;;;;4994599;28;20228;-63
2022/07/16 04:03:30;;;;;;;3.83;2.35;;;15.50;99.90;;;;;;5028970;28;20197;-63
2022/07/16 04:05:57;;;;;;;4.90;2.30;;;15.40;99.90;;;;;;5041546;28;20198;-63
2022/07/16 04:08:24;;;;;;;4.10;1.80;;;14.10;99.90;;;;;;5022668;28;20604;-63
2022/07/16 04:10:51;;;;;;;2.20;1.80;;;15.40;99.90;;;;;;5030430;28;20233;-64
2022/07/16 04:13:18;;;;;;;2.90;1.77;;;16.20;99.90;;;;;;5008520;28;20206;-63
2022/07/16 04:15:47;;;;;;;2.38;1.80;;;15.40;99.90;;;;;;5006245;28;20231;-64
2022/07/16 04:18:13;;;;;;;5.70;2.08;;;15.30;99.90;;;;;;5038878;28;20703;-63
2022/07/16 04:20:41;;;;;;;4.57;1.75;;;15.40;99.90;;;;;;5031018;28;20209;-64
2022/07/16 04:23:08;;;;;;;5.50;1.80;;;15.20;99.90;;;;;;5022421;28;20201;-64
2022/07/16 04:25:35;;;;;;;6.45;1.95;;;15.40;99.90;;;;;;5030998;28;20205;-63
2022/07/16 04:28:02;;;;;;;4.55;1.95;;;15.20;99.90;;;;;;5011953;28;20231;-63
2022/07/16 04:30:28;;;;;;;2.35;1.77;;;15.40;99.90;;;;;;5042119;28;20197;-63
2022/07/16 04:32:57;;;;;;;5.72;2.03;;;15.40;99.90;;;;;;5013463;28;21169;-63
2022/07/16 04:35:24;;;;;;;4.70;1.70;;;15.80;99.90;;;;;;5027322;28;20203;-63
2022/07/16 04:37:51;;;;;;;6.82;1.85;;;15.40;99.90;;;;;;5031772;28;20232;-64
2022/07/16 04:40:18;;;;;;;2.80;1.65;;;15.20;99.90;;;;;;5024328;28;20205;-63
2022/07/16 04:42:45;;;;;;;6.05;1.75;;;15.40;99.90;;;;;;5019552;28;20228;-64
2022/07/16 04:45:13;;;;;;;3.63;1.90;;;15.50;99.90;;;;;;5025412;28;20754;-63
2022/07/16 04:47:40;;;;;;;3.88;1.58;;;15.30;99.90;;;;;;5016210;28;20208;-64
2022/07/16 04:50:09;;;;;;;2.65;1.92;;;15.40;99.90;;;;;;5018752;28;20208;-63
2022/07/16 04:52:36;;;;;;;3.72;2.17;;;15.60;99.90;;;;;;5039556;28;20212;-63
2022/07/16 04:55:04;;;;;;;6.45;1.70;;;13.50;99.90;;;;;;5027802;28;20999;-63
2022/07/16 04:57:31;;;;;;;3.08;1.48;;;15.40;99.90;;;;;;5032833;28;20323;-63
2022/07/16 04:59:58;;;;;;;2.85;1.60;;;14.60;99.90;;;;;;5029706;28;20204;-63
2022/07/16 05:05:11;;;;;;;6.60;1.98;;;14.30;99.90;;;;;;5048565;28;20212;-63
2022/07/16 05:07:38;;;;;;;5.90;1.80;;;;;;;;;;5039907;28;20197;-63
2022/07/16 05:10:06;;;;;;;3.88;1.50;;;15.50;99.90;;;;;;5031733;28;20228;-63
2022/07/16 05:12:33;;;;;;;3.95;1.70;;;15.50;99.90;;;;;;5027651;28;20205;-63
2022/07/16 05:15:00;;;;;;;3.83;1.30;;;15.20;99.90;;;;;;5033857;28;20203;-63
2022/07/16 05:17:27;;;;;;;3.20;1.67;;;15.50;99.90;;;;;;5038385;28;20224;-63
2022/07/16 05:19:54;;;;;;;3.90;1.58;;;;;;;;;;5013279;28;20208;-63
2022/07/16 05:22:22;;;;;;;2.75;1.27;;;15.50;99.90;;;;;;5027422;28;20210;-63
2022/07/16 05:24:49;;;;;;;5.60;1.70;;;15.40;99.80;;;;;;5029317;28;24605;-62
2022/07/16 05:27:16;;;;;;;4.22;1.48;;;12.60;99.90;;;;;;5033510;28;20201;-63
2022/07/16 05:29:42;;;;;;;2.03;1.50;;;15.30;99.90;;;;;;5030868;28;20213;-63
2022/07/16 05:32:09;;;;;;;2.95;1.48;;;15.40;99.90;;;;;;5024006;28;20239;-64
2022/07/16 05:34:36;;;;;;;2.53;1.33;;;15.50;99.10;;;;;;5010856;28;20502;-63
2022/07/16 05:37:03;;;;;;;2.00;1.45;;;15.50;98.40;;;;;;5021116;28;20734;-63
2022/07/16 05:39:31;;;;;;;4.45;1.52;;;15.50;98.50;;;;;;5020553;28;20205;-63
2022/07/16 05:41:58;;;;;;;4.25;1.30;;;15.60;98.40;;;;;;5025271;28;20759;-63
2022/07/16 05:44:25;;;;;;;4.15;1.45;;;15.50;98.70;;;;;;5013898;28;20201;-63
2022/07/16 05:46:52;;;;;;;5.65;1.50;;;15.60;98.80;;;;;;5005756;28;20938;-63
2022/07/16 05:49:19;;;;;;;8.48;1.95;;;15.50;96.20;;;;;;4996367;28;20703;-64
2022/07/16 05:51:46;;;;;;;5.63;1.85;;;15.60;96.60;;;;;;5027988;28;20228;-63
2022/07/16 05:54:12;;;;;;;3.83;1.30;;;15.60;96.70;;;;;;5023182;28;21176;-63
2022/07/16 05:56:41;;;;;;;5.38;1.65;;;15.60;94.50;;;;;;5021895;28;20212;-63
2022/07/16 05:59:08;;;;;;;1.20;1.10;;;15.50;91.70;;;;;;5007690;28;20205;-63
2022/07/16 06:01:34;;;;;;;5.22;1.63;;;15.50;91.50;;;;;;5016819;28;20201;-63
2022/07/16 06:04:01;;;;;;;5.03;1.45;;;15.60;91.90;;;;;;5006283;28;20527;-64
2022/07/16 06:06:28;;;;;;;4.75;1.48;;;15.40;91.40;;;;;;4994597;28;20205;-63
2022/07/16 06:08:55;;;;;;;5.25;1.40;;;15.60;94.90;;;;;;5041078;28;20212;-63
2022/07/16 06:11:22;;;;;;;5.60;1.58;;;15.40;95.30;;;;;;5019227;28;20359;-63
2022/07/16 06:13:50;;;;;;;5.10;1.35;;;15.60;92.20;;;;;;5031612;28;20675;-63
2022/07/16 06:16:18;;;;;;;8.20;1.35;;;15.70;91.90;;;;;;5022980;28;20411;-63
2022/07/16 06:18:45;;;;;;;2.80;1.38;;;15.70;90.00;;;;;;4998993;28;20504;-64
2022/07/16 06:21:12;;;;;;;3.25;1.58;;;15.80;88.30;;;;;;5013497;28;20614;-63
2022/07/16 06:23:39;;;;;;;5.97;1.52;;;15.80;90.00;;;;;;5014259;28;20258;-63
2022/07/16 06:26:06;;;;;;;7.50;2.10;;;15.80;90.70;;;;;;5038892;28;20196;-63
2022/07/16 06:28:33;;;;;;;5.95;1.40;;;15.40;70.80;;;;;;5017835;28;20193;-63
2022/07/16 06:31:01;;;;;;;4.45;1.35;;;15.30;62.00;;;;;;5019009;28;20703;-63
2022/07/16 06:33:28;;;;;;;7.28;1.77;;;15.30;58.00;;;;;;5015324;28;20370;-63
2022/07/16 06:35:55;;;;;;;6.70;1.80;;;15.30;55.00;;;;;;5011384;28;20542;-64
2022/07/16 06:38:22;;;;;;;3.97;1.25;;;15.30;38.80;;;;;;5029467;28;20979;-63
2022/07/16 06:40:49;;;;;;;5.13;1.65;;;15.20;36.20;;;;;;5033326;28;20474;-63
2022/07/16 06:43:15;;;;;;;5.32;1.35;;;15.10;13.60;;;;;;5025931;28;20223;-63
2022/07/16 06:45:43;;;;;;;7.15;1.30;;;15.10;8.80;;;;;;5027412;28;20788;-63
2022/07/16 06:48:11;;;;;;;3.97;1.50;;;15.40;3.80;;;;;;5021758;28;20224;-63
2022/07/16 06:50:38;;;;;;;9.23;1.10;;;15.30;3.80;;;;;;4991518;28;20212;-63
2022/07/16 06:53:06;;;;;;;6.70;1.30;;;15.30;1.00;;;;;;5024912;28;20201;-63
2022/07/16 06:55:33;;;;;;;4.60;0.90;;;15.60;1.00;;;;;;5017916;28;20204;-63
2022/07/16 06:57:59;;;;;;;4.15;1.45;;;15.60;1.00;;;;;;5007325;28;20240;-63
2022/07/16 07:00:26;;;;;;;5.03;1.17;;;15.00;1.00;;;;;;5028400;28;20213;-62
2022/07/16 07:02:53;;;;;;;6.25;1.60;;;15.60;1.00;;;;;;5002974;28;20647;-63
2022/07/16 07:05:21;;;;;;;4.60;1.20;;;15.50;1.00;;;;;;5011171;28;20201;-62
2022/07/16 07:07:48;;;;;;;3.13;1.10;;;15.50;1.00;;;;;;5018421;28;20736;-63
2022/07/16 07:10:15;;;;;;;9.00;1.27;;;15.40;1.00;;;;;;5022171;28;20844;-62
2022/07/16 07:12:42;;;;;;;2.70;1.02;;;15.80;1.00;;;;;;4992103;28;21933;-63
2022/07/16 07:15:09;;;;;;;3.30;1.00;;;15.70;1.00;;;;;;5036115;28;20211;-63
2022/07/16 07:17:36;;;;;;;4.45;0.77;;;15.60;1.00;;;;;;5015817;28;21260;-63
2022/07/16 07:20:05;;;;;;;5.20;0.98;;;16.00;99.90;;;;;;4988714;28;21170;-63
2022/07/16 07:22:33;;;;;;;5.07;1.33;;;15.80;1.00;;;;;;5037853;28;20231;-62
2022/07/16 07:25:00;;;;;;;5.13;1.00;;;15.90;99.90;;;;;;5026557;28;20225;-62
2022/07/16 07:27:26;;;;;;;2.92;1.10;;;16.10;1.00;;;;;;5040901;28;20193;-62
2022/07/16 07:29:54;;;;;;;5.88;1.25;;;;;;;;;;5026096;28;20209;-63
2022/07/16 07:32:20;;;;;;;6.03;1.20;;;16.20;1.00;;;;;;5021998;28;20209;-62
2022/07/16 07:34:47;;;;;;;5.85;1.10;;;16.20;1.00;;;;;;5023430;28;20587;-61
2022/07/16 07:37:14;;;;;;;6.75;1.10;;;16.40;1.00;;;;;;5008921;28;20220;-62
2022/07/16 07:39:42;;;;;;;5.40;1.17;;;16.20;99.90;;;;;;5035886;28;20212;-62
2022/07/16 07:42:09;;;;;;;6.97;1.42;;;16.30;1.00;;;;;;5001482;28;20208;-62
2022/07/16 07:44:36;;;;;;;4.97;1.50;;;16.30;99.90;;;;;;5029490;28;20211;-62
2022/07/16 07:47:03;;;;;;;4.70;1.23;;;16.30;1.00;;;;;;5030143;28;20197;-62
2022/07/16 07:49:30;;;;;;;6.93;1.60;;;16.20;1.00;;;;;;5027000;28;20292;-62
2022/07/16 07:51:57;;;;;;;4.10;1.42;;;15.90;99.90;;;;;;5004434;28;21805;-63
2022/07/16 07:54:24;;;;;;;2.72;1.15;;;15.80;1.00;;;;;;5027329;28;20196;-62
2022/07/16 07:56:52;;;;;;;8.35;1.58;;;16.20;1.00;;;;;;5034417;28;20978;-62
2022/07/16 07:59:19;;;;;;;3.42;0.98;;;16.00;1.00;;;;;;5017518;28;20225;-63
2022/07/16 08:01:45;;;;;;;2.95;1.23;;;16.00;99.90;;;;;;5025213;28;20212;-62
2022/07/16 08:04:12;;;;;;;3.08;1.10;;;15.90;99.90;;;;;;5009908;28;20782;-61
2022/07/16 08:06:39;;;;;;;4.55;1.30;;;16.00;1.00;;;;;;5030795;28;20201;-62
2022/07/16 08:09:06;;;;;;;2.22;0.90;;;16.00;1.00;;;;;;5010372;28;20604;-62
2022/07/16 08:11:33;;;;;;;5.10;1.48;;;;;;;;;;5011203;28;20213;-62
2022/07/16 08:14:01;;;;;;;2.95;0.90;;;16.30;12.00;;;;;;5032941;28;20307;-62
2022/07/16 08:16:28;;;;;;;3.25;1.00;;;15.90;99.90;;;;;;5016652;28;20575;-62
2022/07/16 08:18:55;;;;;;;5.25;1.30;;;16.00;71.00;;;;;;5009879;28;20496;-63
2022/07/16 08:21:22;;;;;;;3.85;0.93;;;16.10;99.90;;;;;;5037470;28;20750;-63
2022/07/16 08:26:48;;;;;;;5.13;1.17;;;16.30;99.90;;;;;;4930972;28;20794;-62
2022/07/16 08:29:16;;;;;;;2.65;0.93;;;16.10;99.90;;;;;;4956395;28;21282;-63
2022/07/16 08:31:43;;;;;;;3.53;1.15;;;16.20;99.90;;;;;;4975116;28;20232;-63
2022/07/16 08:34:09;;;;;;;12.63;1.58;;;16.30;99.90;;;;;;5014926;28;20574;-63
2022/07/16 08:36:37;;;;;;;4.45;1.00;;;16.30;1.00;;;;;;5016554;28;20202;-62
2022/07/16 08:39:04;;;;;;;2.05;1.00;;;16.20;1.00;;;;;;4983125;28;20332;-62
2022/07/16 08:41:32;;;;;;;5.32;1.58;;;16.20;23.90;;;;;;5015283;28;20220;-62
2022/07/16 08:43:59;;;;;;;4.28;0.95;;;15.90;1.00;;;;;;5030355;28;20208;-63
2022/07/16 08:46:29;;;;;;;3.47;0.90;;;16.20;1.00;;;;;;5021449;22;20235;-62
2022/07/16 08:48:56;;;;;;;3.03;1.30;;;16.20;1.00;;;;;;5047373;28;20204;-63
2022/07/16 08:51:31;;;;;;;5.18;1.40;;;16.40;1.00;;;;;;5018958;28;20224;-63
2022/07/16 08:54:04;;;;;;;11.32;1.35;;;16.30;1.00;;;;;;5038631;28;20710;-63
2022/07/16 08:56:33;;;;;;;7.28;1.20;;;17.90;1.00;;;;;;5056710;28;20196;-63
2022/07/16 08:59:01;;;;;;;6.32;1.25;;;16.30;99.90;;;;;;5025401;28;21083;-63
2022/07/16 09:01:30;;;;;;;7.60;1.25;;;16.30;99.90;;;;;;5034899;28;20698;-62
2022/07/16 09:03:57;;;;;;;2.08;1.00;;;16.40;1.00;;;;;;5038023;28;20265;-62
2022/07/16 09:06:25;;;;;;;6.28;1.20;;;16.40;99.90;;;;;;5034024;28;20255;-63
2022/07/16 09:08:52;;;;;;;2.92;0.98;;;20.00;1.00;;;;;;5040971;28;20824;-63
2022/07/16 09:11:21;;;;;;;4.40;1.63;;;16.60;99.90;;;;;;5039722;28;20310;-62
2022/07/16 09:14:06;;;;;;;1.73;1.00;;;16.70;99.90;;;;;;5035979;28;20258;-61
2022/07/16 09:16:36;;;;;;;4.95;1.17;;;18.20;99.90;;;;;;5056895;28;20234;-62
2022/07/16 09:19:10;;;;;;;4.55;1.30;;;16.80;1.00;;;;;;5015337;28;20247;-63
2022/07/16 09:21:38;;;;;;;6.00;1.23;;;16.50;99.90;;;;;;5058947;28;20263;-62
2022/07/16 09:24:05;;;;;;;4.50;1.35;;;16.40;99.90;;;;;;5020314;28;20221;-62
2022/07/16 09:26:32;;;;;;;6.03;1.30;;;16.40;1.00;;;;;;5029066;28;20364;-62
2022/07/16 09:29:03;;;;;;;3.97;1.02;;;16.50;1.00;;;;;;5042982;28;20196;-63
2022/07/16 09:31:40;;;;;;;6.03;1.48;;;16.80;1.00;;;;;;5057951;28;20255;-61
2022/07/16 09:34:09;;;;;;;4.22;1.13;;;16.80;99.90;;;;;;5023948;28;20224;-62
2022/07/16 09:36:37;;;;;;;8.82;1.40;;;16.80;99.90;;;;;;5049303;28;20201;-62
2022/07/16 09:39:06;;;;;;;2.20;1.00;;;16.90;99.90;;;;;;5037285;28;20228;-62
2022/07/16 09:41:43;;;;;;;5.53;1.42;;;16.90;1.00;;;;;;5025966;28;20305;-62
2022/07/16 09:44:17;;;;;;;7.05;1.30;;;16.30;1.00;;;;;;5017290;28;20288;-62
2022/07/16 09:47:00;;;;;;;3.17;1.20;;;16.70;99.90;;;;;;5045118;28;20250;-62
2022/07/16 09:49:27;;;;;;;7.03;1.30;;;15.90;1.00;;;;;;5039129;28;20200;-61
2022/07/16 09:51:54;;;;;;;3.08;1.02;;;16.90;1.00;;;;;;5050936;28;20200;-62
2022/07/16 09:54:30;;;;;;;10.90;1.45;;;17.00;1.00;;;;;;5038454;28;20208;-61
2022/07/16 09:57:13;;;;;;;5.43;1.00;;;20.40;1.00;;;;;;5003409;28;20203;-62
2022/07/16 09:59:40;;;;;;;3.50;1.10;;;16.90;99.90;;;;;;5034054;28;20232;-62
2022/07/16 10:02:09;;;;;;;2.92;0.90;;;17.00;99.90;;;;;;5043050;28;20209;-62
2022/07/16 10:04:35;;;;;;;3.25;1.10;;;17.10;99.90;;;;;;5037757;28;20200;-62
2022/07/16 10:07:02;;;;;;;5.60;1.35;;;16.60;1.00;;;;;;5018211;28;20216;-61
2022/07/16 10:09:30;;;;;;;5.05;1.50;;;16.80;99.90;;;;;;5048109;28;20234;-62
2022/07/16 10:11:59;;;;;;;9.95;1.35;;;16.40;99.90;;;;;;4998681;28;20207;-62
2022/07/16 10:14:26;;;;;;;6.20;1.55;;;16.50;99.90;;;;;;5052920;28;20246;-62
2022/07/16 10:17:00;;;;;;;5.90;1.25;;;16.50;99.90;;;;;;5032917;28;20207;-62
2022/07/16 10:19:36;;;;;;;6.95;1.63;;;16.30;99.90;;;;;;5042571;28;20231;-62
2022/07/16 10:22:15;;;;;;;2.58;0.82;;;16.70;1.00;;;;;;5033728;28;20223;-62
2022/07/16 10:24:47;;;;;;;7.57;1.33;;;;;;;;;;5039438;28;20228;-61
2022/07/16 10:27:18;;;;;;;5.80;1.40;;;17.20;1.00;;;;;;5041126;28;20204;-61
2022/07/16 10:29:45;;;;;;;6.55;1.27;;;17.20;99.90;;;;;;5019878;28;20228;-62
2022/07/16 10:32:30;;;;;;;6.68;1.35;;;17.10;1.00;;;;;;5039057;28;20216;-61
2022/07/16 10:35:01;;;;;;;3.38;1.15;;;17.40;48.00;;;;;;5040680;28;20232;-62
2022/07/16 10:37:33;;;;;;;2.13;1.02;;;16.70;99.90;;;;;;5061954;28;20212;-62
2022/07/16 10:40:10;;;;;;;9.90;1.13;;;17.00;1.00;;;;;;5040193;28;20366;-63
2022/07/16 10:42:37;;;;;;;5.68;1.15;;;17.40;99.90;;;;;;5041310;28;20298;-62
2022/07/16 10:45:05;;;;;;;3.78;1.48;;;;;;;;;;5011246;28;20234;-63
2022/07/16 10:47:50;;;;;;;2.00;0.90;;;17.40;99.90;;;;;;5040809;28;20234;-62
2022/07/16 10:50:22;;;;;;;7.28;0.85;;;17.20;99.90;;;;;;5037724;28;20617;-61
2022/07/16 10:52:51;;;;;;;4.47;0.98;;;17.30;99.90;;;;;;5050807;28;20220;-62
2022/07/16 10:55:38;;;;;;;0.85;0.65;;;17.50;1.00;;;;;;5048546;28;20248;-62
2022/07/16 10:58:05;;;;;;;1.45;0.73;;;17.60;1.00;;;;;;5032120;28;20300;-62
2022/07/16 11:00:32;;;;;;;5.45;0.90;;;17.70;1.00;;;;;;5034178;28;20224;-62
2022/07/16 11:03:01;;;;;;;3.67;1.02;;;17.80;1.00;;;;;;5024379;28;24176;-62
2022/07/16 11:05:32;;;;;;;3.95;1.00;;;17.90;1.00;;;;;;5025081;28;23731;-61
2022/07/16 11:08:10;;;;;;;4.05;1.20;;;17.80;1.00;;;;;;5042078;28;20262;-62
2022/07/16 11:10:38;;;;;;;6.45;1.20;;;18.30;1.00;;;;;;5035410;28;20231;-61
2022/07/16 11:13:12;;;;;;;8.13;1.27;;;17.50;1.00;;;;;;5046863;28;20233;-61
2022/07/16 11:15:40;;;;;;;3.03;1.05;;;17.20;99.90;;;;;;5026031;28;20842;-61
2022/07/16 11:18:15;;;;;;;8.95;1.90;;;19.30;99.90;;;;;;5009058;28;20205;-62
2022/07/16 11:20:44;;;;;;;5.78;1.17;;;;;;;;;;5055442;28;20807;-62
2022/07/16 11:23:15;;;;;;;3.92;1.00;;;17.80;99.90;;;;;;5036482;28;20870;-62
2022/07/16 11:25:58;;;;;;;3.40;0.90;;;18.40;99.90;;;;;;5041958;28;20689;-63
2022/07/16 11:28:25;;;;;;;6.03;1.10;;;17.70;99.90;;;;;;5006583;28;20693;-62
2022/07/16 11:31:06;;;;;;;4.00;1.10;;;17.70;99.90;;;;;;5020970;28;20376;-62
2022/07/16 11:33:34;;;;;;;6.28;1.55;;;17.50;99.90;;;;;;5018564;28;20228;-63
2022/07/16 11:36:13;;;;;;;2.78;1.10;;;17.50;99.90;;;;;;5030828;28;20220;-62
2022/07/16 11:38:40;;;;;;;4.07;1.17;;;17.50;99.90;;;;;;5056213;28;20680;-62
2022/07/16 11:41:07;;;;;;;4.53;1.10;;;17.90;99.90;;;;;;5027635;28;20223;-63
2022/07/16 11:43:35;;;;;;;3.97;1.17;;;17.80;99.90;;;;;;5037480;28;20216;-62
2022/07/16 11:46:02;;;;;;;4.07;0.98;;;17.70;40.60;;;;;;5018375;28;20969;-63
2022/07/16 11:48:36;;;;;;;7.38;1.40;;;17.40;1.00;;;;;;5022607;28;20992;-62
2022/07/16 11:51:09;;;;;;;6.82;1.35;;;17.30;45.10;;;;;;5035609;28;20204;-63
2022/07/16 11:53:37;;;;;;;5.47;1.15;;;17.50;1.00;;;;;;5050506;28;20227;-63
2022/07/16 11:56:06;;;;;;;2.55;1.20;;;17.40;1.00;;;;;;5029042;28;20197;-62
2022/07/16 11:58:33;;;;;;;3.67;1.10;;;17.60;1.00;;;;;;5040122;28;20216;-62
2022/07/16 12:01:00;;;;;;;1.92;0.93;;;17.70;7.70;;;;;;5031757;28;20200;-63
2022/07/16 12:03:27;;;;;;;3.80;1.02;;;17.40;1.00;;;;;;5029423;28;20584;-62
2022/07/16 12:06:01;;;;;;;1.90;0.88;;;17.30;1.00;;;;;;5046824;28;20314;-60
2022/07/16 12:08:30;;;;;;;4.93;1.05;;;;;;;;;;5011558;28;20775;-62
2022/07/16 12:10:59;;;;;;;7.15;1.30;;;16.60;45.90;;;;;;5043468;28;20714;-62
2022/07/16 12:13:26;;;;;;;4.80;1.40;;;17.60;1.00;;;;;;5030517;28;20238;-62
2022/07/16 12:15:54;;;;;;;3.72;1.20;;;19.60;1.00;;;;;;5022711;28;23974;-62
2022/07/16 12:18:21;;;;;;;5.57;1.35;;;17.50;1.00;;;;;;5014814;28;20706;-62
2022/07/16 12:20:48;;;;;;;9.13;1.70;;;17.30;1.00;;;;;;5027539;28;20223;-62
2022/07/16 12:23:15;;;;;;;3.33;1.00;;;17.60;1.00;;;;;;5041023;28;20779;-62
2022/07/16 12:25:45;;;;;;;4.03;1.08;;;17.50;1.00;;;;;;5053525;28;20204;-63
2022/07/16 12:28:21;;;;;;;3.90;1.00;;;18.20;1.00;;;;;;5025857;28;20207;-63
2022/07/16 12:30:52;;;;;;;5.15;0.85;;;17.30;1.00;;;;;;5042068;28;20224;-62
2022/07/16 12:33:28;;;;;;;1.20;0.80;;;17.60;1.00;;;;;;5014411;28;20208;-62
2022/07/16 12:36:00;;;;;;;7.60;1.42;;;17.80;1.00;;;;;;5030471;28;20231;-62
2022/07/16 12:38:48;;;;;;;6.30;1.00;;;17.80;1.00;;;;;;5042022;28;20592;-63
2022/07/16 12:41:18;;;;;;;3.38;0.80;;;17.60;99.90;;;;;;5036838;28;20990;-62
2022/07/16 12:43:49;;;;;;;4.85;1.30;;;17.70;99.90;;;;;;5038625;28;20200;-63
2022/07/16 12:46:17;;;;;;;2.70;0.90;;;17.80;99.90;;;;;;5028422;28;21325;-62
2022/07/16 12:48:46;;;;;;;2.50;0.70;;;17.80;1.00;;;;;;5019569;28;20216;-62
2022/07/16 12:51:15;;;;;;;1.55;0.75;;;17.90;1.00;;;;;;5040060;28;21204;-63
2022/07/16 12:53:42;;;;;;;3.35;0.80;;;17.80;1.00;;;;;;5032638;28;20220;-62
2022/07/16 12:58:55;;;;;;;6.07;0.80;;;18.20;72.70;;;;;;5049592;28;20214;-62
2022/07/16 13:01:23;;;;;;;4.13;1.15;;;17.70;1.00;;;;;;5036892;28;20227;-62
2022/07/16 13:03:51;;;;;;;3.70;1.20;;;18.20;1.00;;;;;;5063682;28;20283;-63
2022/07/16 13:06:18;;;;;;;3.08;1.13;;;18.20;15.30;;;;;;5033847;28;21137;-63
2022/07/16 13:08:45;;;;;;;3.53;1.20;;;18.10;26.20;;;;;;5045671;28;20672;-63
2022/07/16 13:11:13;;;;;;;2.78;0.80;;;18.00;89.70;;;;;;5034636;28;20200;-63